Aviation Digital Data Service (ADDS)

Output produced by METARs form (1306 UTC 21 February 2018)
found at http://www.aviationweather.gov/adds/metars/
 
LFLB 211300Z AUTO 34014KT 9999 SCT041 BKN047 BKN054 04/M04 Q1013 NOSIG
LFBZ 211300Z AUTO 02007KT 330V080 9999 FEW038 SCT100 BKN140 09/01 Q1016 NOSIG
LFRT 211300Z AUTO 06012KT 040V100 8000 NSC 07/01 Q1024
LFRM 211300Z AUTO 03012KT 360V060 9999 FEW019 06/M02 Q1022 NOSIG
LFLC 211300Z AUTO 01012KT 320V030 9999 BKN033 BKN039 02/M04 Q1015 NOSIG
TAF AMD LFLC 201515Z 2015/2115 03008KT 9999 BKN009 OVC020 
     PROB40 
     TEMPO 2021/2024 2000 RASN BR OVC003 
     BECMG 2103/2106 NSW BKN013 
     TEMPO 2109/2115 36010G20KT
       
LFOA 211300Z AUTO 03014KT 360V060 9999 FEW037 05/M03 Q1018 NOSIG
TAF LFOA 201400Z 2015/2115 01008KT 9999 SCT018 BKN025 
     PROB40 
     TEMPO 2022/2109 BKN005 
     TEMPO 2111/2115 02015G25KT
       
LFSB 211300Z 02012KT 350V050 9999 FEW020 BKN033 03/M04 Q1016 TEMPO 02015G25KT
LFQB 211300Z AUTO 03010KT 340V060 7000 NSC 05/M02 Q1020
LFBL 211300Z AUTO 03019KT 9999 SCT024 03/M03 Q1015 NOSIG
LFBI 211300Z AUTO 02014KT 7000 BKN026 05/M00 Q1019 NOSIG
LFBO 211300Z AUTO 32014KT 290V350 9999 FEW042 08/M02 Q1013 NOSIG
TAF LFBO 201100Z 2012/2118 30012KT 9999 BKN013 
     PROB40 
     TEMPO 2012/2018 4000 -RA BKN009 
     BECMG 2018/2020 BKN030 
     TEMPO 2012/2022 30015G25KT
       
LFMH 211300Z AUTO 34007KT 300V020 9999 OVC029 01/M05 Q1013 NOSIG
TAF LFMH 201400Z 2015/2115 33010KT 9999 SCT020 OVC040 
     TEMPO 2015/2021 36010G20KT 
     PROB40 
     TEMPO 2018/2024 1500 -SN BR OVC003 
     BECMG 2106/2109 NSW BKN013 
     TEMPO 2109/2115 36010G20KT
       
TAF LFAQ 211100Z 2112/2121 03012KT 4000 BR NSC 
     BECMG 2112/2114 6000 NSW
       
LFOJ 211300Z AUTO 03015KT 7000 BKN024 04/M00 Q1020 TEMPO 02015G25KT
TAF LFOJ 201400Z 2015/2115 02008KT 9999 OVC008 
     BECMG 2015/2017 OVC020 
     TEMPO 2018/2021 4000 -RA BKN015 
     BECMG 2021/2023 OVC011 
     BECMG 2111/2113 SCT020
       
LFLY 211300Z AUTO 36015KT 340V080 9999 FEW034 OVC056 04/M05 Q1013 NOSIG
LFKJ 211300Z AUTO VRB03KT 9999 FEW035 BKN043 OVC052 11/02 Q1003 TEMPO 4000 TSRA SCT026TCU BKN035
TAF LFKJ 201400Z 2015/2115 24008KT 9999 SCT040 BKN060 
     TEMPO 2015/2018 SHRA SCT026TCU BKN050 
     BECMG 2018/2021 04006KT SCT030 
     TEMPO 2112/2115 SHRA SCT026 BKN050
       
LFMO 211300Z AUTO 36025KT CAVOK 07/M05 Q1009 BECMG 35025G35KT
TAF LFMO 201400Z 2015/2115 34020G30KT CAVOK 
     TEMPO 2015/2108 35030G40KT
       
LFRK 211300Z AUTO 03010KT 360V060 7000 FEW029 06/M00 Q1024 TEMPO 05015G25KT
LFMV 211300Z AUTO 35022KT CAVOK 08/M04 Q1009 TEMPO 35027G37KT
TAF LFMV 201400Z 2015/2115 34025G35KT CAVOK 
     BECMG 2100/2103 35020G30KT
       
LFBC 211300Z AUTO 02013KT 340V040 CAVOK 09/M02 Q1017 NOSIG
TAF LFBC 201400Z 2015/2115 32012KT 9999 BKN015 BKN065 
     PROB40 
     TEMPO 2020/2023 5000 -RA BKN010 
     BECMG 2104/2105 02010KT
       
LFLU 211300Z AUTO 02014KT 9999 BKN035 OVC042 03/M03 Q1012
LFPG 211300Z 02013KT 4500 BR BKN021 04/M02 Q1022 NOSIG
TAF AMD LFPG 211245Z 2113/2218 03012KT 4000 HZ BKN020 
     TEMPO 2113/2117 6000 
     BECMG 2202/2204 4000 BR BKN005 
     BECMG 2207/2209 SCT010 
     BECMG 2212/2214 SCT025 TX06/2115Z TNM03/2206Z
       
LFBG 211300Z AUTO 03015KT 360V070 9999 SCT028 BKN034 BKN190 07/M01 Q1018 TEMPO 03015G25KT
TAF LFBG 201400Z 2015/2115 34015G25KT 9999 BKN020 
     TEMPO 2016/2022 5000 -RA BKN010 
     BECMG 2110/2112 CAVOK
       
LFOC 211300Z AUTO 33012KT 290V360 6000 FEW022 BKN027 04/M02 Q1021 TEMPO 02015G25KT
TAF LFOC 201400Z 2015/2115 32008KT 8000 BKN006 OVC015 
     TEMPO 2015/2021 4000 -RADZ BKN004 OVC010 
     BECMG 2021/2023 NSW SCT008 BKN025 
     TEMPO 2101/2108 3000 BR BKN003
       
LFMN 211300Z 09014KT 9999 FEW060 SCT096 BKN200 11/01 Q1005 NOSIG
TAF LFMN 201400Z 2015/2121 10008KT 9999 FEW030 BKN050 
     BECMG 2017/2019 34010KT 
     BECMG 2108/2110 08015G25KT 
     TEMPO 2110/2116 09020G30KT 
     BECMG 2116/2118 34010KT
       
LFLX 211300Z AUTO 03013KT 360V060 7000 BKN031 05/M01 Q1018 NOSIG
TAF LFLX 201100Z 2012/2118 36008KT 9999 BKN008 
     BECMG 2012/2015 BKN018 
     TEMPO 2019/2024 6000 -RA BKN012 
     BECMG 2100/2103 03010KT BKN012 
     BECMG 2109/2112 BKN025 
     TEMPO 2115/2118 02010G20KT
       
LFOV 211300Z AUTO 04012KT CAVOK 07/M01 Q1022
LFST 211300Z AUTO 03014KT 6000 FEW032 04/M02 Q1019 TEMPO 02015G25KT
LFSN 211300Z AUTO 05012KT 8000 FEW032 05/M02 Q1019
LFOE 211300Z AUTO 02010KT 340V040 5000 HZ BKN026 04/M02 Q1023
TAF LFOE 201400Z 2015/2115 36010KT 9999 BKN006 OVC008 
     TEMPO 2015/2024 2000 DZRA BKN004 
     PROB40 
     TEMPO 2015/2021 36015G25KT 
     BECMG 2101/2103 SCT015
       
LFTW 211300Z AUTO 01020KT CAVOK 08/M06 Q1009 NOSIG
TAF LFTW 201400Z 2015/2115 36012KT CAVOK 
     TEMPO 2015/2022 36020G30KT 
     TEMPO 2022/2106 36015G25KT 
     TEMPO 2106/2113 36020G35KT
       
LFRB 211300Z AUTO 07013KT 9999 FEW026 SCT039 08/02 Q1023 NOSIG
TAF LFRB 201100Z 2012/2118 36015KT 9999 FEW020 
     TEMPO 2012/2018 01018G28KT 
     PROB30 
     TEMPO 2100/2107 4000 -SHRA BKN014 
     BECMG 2103/2106 04010KT
       
LFBH 211300Z AUTO 03013KT 8000 BKN030 BKN240 08/01 Q1020 NOSIG
LFBA 211300Z AUTO 34010KT 320V020 9000 FEW040 08/M01 Q1015 NOSIG
LFRJ 211300Z AUTO 07012KT 040V100 6000 BKN025 BKN034 09/02 Q1023 NOSIG
LFRH 211300Z AUTO 05014KT CAVOK 09/M00 Q1022 NOSIG
LFRO 211300Z AUTO 06009KT 350V100 9000 NSC 08/M00 Q1024 NOSIG
LFPB 211300Z AUTO 04010KT 5000 BR BKN025 BKN180 04/M01 Q1023 NOSIG
LFMC 211300Z VRB03KT 9999 FEW033TCU BKN040 BKN100 11/M00 Q1006
LFTH 211300Z AUTO 35004KT 300V060 9999 SCT049 BKN058 BKN068 10/03 Q1006 NOSIG
TAF LFTH 201400Z 2015/2115 09006KT CAVOK 
     TEMPO 2015/2018 SCT030 BKN035 
     PROB30 
     TEMPO 2016/2022 -SHRA BKN030TCU 
     BECMG 2020/2021 33010KT SCT025 BKN030 
     TEMPO 2100/2105 5000 SHRA 
     PROB30 
     TEMPO 2106/2109 -SHRA BKN030TCU 
     BECMG 2109/2110 01010KT
       
LFAT 211300Z AUTO 05008KT 020V080 7000 NSC 06/M02 Q1025 NOSIG
TAF LFAT 211100Z 2112/2121 07010KT 6000 NSC
       
LFMI 211300Z AUTO 34021KT CAVOK 08/M04 Q1008 NOSIG
TAF LFMI 201400Z 2015/2115 34027G40KT CAVOK 
     BECMG 2100/2103 35020G30KT 
     BECMG 2106/2109 35015KT 
     TEMPO 2103/2110 -SHRA BKN025
       
LFRI 211300Z AUTO 03014KT 360V060 9999 SCT030 07/00 Q1020 NOSIG
LFQQ 211300Z AUTO 04010KT 350V070 6000 NSC 04/M03 Q1025 NOSIG
TAF LFQQ 201100Z 2012/2118 VRB03KT 9999 SCT015 BKN050 
     TEMPO 2013/2018 4000 RA BKN013 
     BECMG 2108/2111 02013KT
       
LFSD 211300Z AUTO 03015KT 9999 BKN037 BKN043 04/M05 Q1016
LFBT 211300Z AUTO 33007KT 280V010 9999 BKN034 BKN042 07/00 Q1014 NOSIG
LFMD 211300Z AUTO 11008KT 060V160 9999 FEW062 12/M03 Q1005 NOSIG
TAF LFMD 201400Z 2015/2115 15006KT 9999 SCT025 BKN050 
     BECMG 2017/2019 32006KT 
     BECMG 2109/2111 11010KT
       
LFCR 211300Z AUTO 02015KT 360V070 CAVOK 02/M06 Q1011 NOSIG
LFCK 211300Z AUTO 31012KT 280V340 9999 SCT046 07/M04 Q1013 NOSIG
LFMT 211300Z AUTO 03014KT 360V060 CAVOK 09/M05 Q1009 NOSIG
TAF LFMT 201400Z 2015/2115 36010KT CAVOK 
     TEMPO 2108/2112 02020G30KT
       
LFBD 211300Z AUTO 02016KT 9999 FEW041 08/M00 Q1017 NOSIG
TAF LFBD 201100Z 2012/2118 30008KT 9999 BKN015 
     PROB30 
     TEMPO 2012/2107 4000 -RA BKN009 
     BECMG 2107/2109 SCT025 TX11/2015Z TN05/2106Z
       
LFJL 211300Z AUTO 04013KT 8000 NSC 05/M04 Q1019 NOSIG
LFRV 211300Z AUTO 05012KT 020V080 9999 FEW042 08/M01 Q1022
LFLP 211300Z AUTO 34016KT 9999 BKN041 02/M05 Q1011 NOSIG
TAF LFLP 201400Z 2015/2115 35012KT 9999 FEW060 
     TEMPO 2105/2110 SCT020 
       
LFSG 211300Z AUTO 03016KT 9999 FEW028 03/M04 Q1018
LFBM 211300Z AUTO 02011KT 350V070 CAVOK 09/M01 Q1016 NOSIG
TAF LFBM 201400Z 2015/2115 30013KT 9999 BKN015 
     TEMPO 2020/2103 4000 -RADZ BKN008 
     BECMG 2023/2101 36010KT 
     TEMPO 2103/2106 BKN010 
     BECMG 2108/2110 NSC
       
LFRZ 211300Z AUTO 03011KT 360V060 7000 NSC 08/M00 Q1022 NOSIG
LFRS 211300Z AUTO 05008KT 360V080 CAVOK 08/M01 Q1021 NOSIG
TAF LFRS 201100Z 2012/2118 33011KT 9999 BKN017 BKN025 
     PROB30 
     TEMPO 2012/2018 34012G22KT 4000 -DZRA BKN008 OVC015 
     PROB40 
     TEMPO 2100/2104 4000 -DZRA BKN008 OVC015 
     BECMG 2103/2107 04010G20KT 
     TEMPO 2107/2109 BKN008 
     BECMG 2109/2112 SCT025
       
LFSO 211300Z AUTO 04011KT 010V070 8000 FEW033 04/M04 Q1018 NOSIG
TAF LFSO 201400Z 2015/2115 03010KT 9999 SCT030
       
LFOH 211300Z AUTO 03016KT 7000 NSC 06/M03 Q1024 NOSIG
LFPO 211300Z 05013KT 8000 SCT026 04/M01 Q1022 NOSIG
TAF LFPO 201100Z 2012/2118 36005KT 6000 BKN012 
     TEMPO 2012/2016 BKN020 
     TEMPO 2017/2020 2000 RADZ BKN003 
     BECMG 2021/2024 03010KT CAVOK 
     PROB40 
     TEMPO 2103/2108 BKN008
       
LFBP 211300Z AUTO 35005KT 300V040 9999 FEW030 SCT035 08/00 Q1015 NOSIG
LFRD 211300Z AUTO 03011KT 360V060 8000 NSC 07/M01 Q1024 NOSIG
LFRQ 211300Z AUTO 06010KT 030V100 9999 SCT037 08/01 Q1023 NOSIG
LFKB 211300Z AUTO 05010KT 9999 -RA BKN036 BKN042 OVC049 08/03 Q1005 TEMPO SHRA FEW025TCU BKN030
TAF LFKB 201400Z 2015/2115 04008KT 9999 BKN050 OVC070 
     TEMPO 2100/2109 04015KT 
     TEMPO 2106/2115 SHRA SCT026TCU BKN030 OVC080 TX10/2112Z TN04/2104Z
       
LFRL 211300Z AUTO 06008KT 020V090 9999 BKN036 08/02 Q1023 NOSIG
LFML 211300Z AUTO 32014KT CAVOK 08/M01 Q1008 NOSIG
TAF LFML 201400Z 2015/2121 34020G30KT CAVOK 
     BECMG 2100/2103 35015G25KT 
     TEMPO 2103/2110 -SHRA BKN025 
     BECMG 2115/2118 33010KT TX12/2015Z TN02/2106Z
       
LFQA 211300Z AUTO 03008KT 350V070 9000 NSC 05/M01 Q1021
LFMP 211300Z AUTO 33014KT 9999 BKN058 10/M04 Q1010 TEMPO 32020G30KT
TAF LFMP 201400Z 2015/2115 32012KT 9999 BKN030 
     TEMPO 2015/2024 32025G35KT 
     PROB40 
     TEMPO 2015/2021 32030G40KT 
     TEMPO 2100/2115 32020G30KT
       
LFSI 211300Z AUTO 04010KT 010V080 9999 FEW037 06/M03 Q1019
LFBE 211300Z AUTO 36011KT 9999 FEW042 08/M00 Q1015 NOSIG
LFKC 211300Z AUTO 04015KT 9999 FEW034 SCT060 BKN076 09/01 Q1004 TEMPO 04012G22KT SHRA FEW025TCU BKN035
TAF LFKC 201400Z 2015/2115 04010KT 9999 FEW050 
     TEMPO 2018/2109 04012G22KT TX11/2015Z TN03/2104Z
       
LFLL 211300Z 35015KT 9999 BKN048 03/M05 Q1013 NOSIG
TAF LFLL 201100Z 2012/2118 35015KT CAVOK 
     PROB40 
     TEMPO 2103/2109 BKN010 
     BECMG 2108/2111 BKN025
       
LFLS 211300Z AUTO 35007KT 310V070 9999 OVC043 02/M04 Q1012 NOSIG
TAF LFLS 201400Z 2015/2115 35012KT CAVOK 
     TEMPO 2015/2022 35015G25KT 
     PROB40 
     TEMPO 2023/2109 BKN009 
     BECMG 2109/2111 SCT025
       
LFSX 211300Z AUTO 36011KT 330V030 CAVOK 07/M06 Q1016 NOSIG
TAF LFSX 201400Z 2015/2115 35008KT 9999 OVC040 
     TEMPO 2103/2108 3000 BR
       
LFLN 211300Z AUTO 35012KT 9999 BKN042 04/M03 Q1015 NOSIG
LFMY 211300Z AUTO 33017KT CAVOK 08/M04 Q1008 BECMG 34020G30KT
TAF LFMY 201400Z 2015/2115 34020G37KT CAVOK 
     BECMG 2100/2102 34015G25KT 
     BECMG 2104/2106 34015KT
       
LFMK 211300Z AUTO 31013KT 9999 BKN044 BKN050 07/M02 Q1012 TEMPO 28015G25KT
TAF AMD LFMK 201518Z 2015/2115 28012KT 9999 BKN020 
     TEMPO 2015/2021 28020G35KT 3000 RA BKN007 
     TEMPO 2021/2024 28015G25KT BKN018 
     TEMPO 2108/2114 28020G30KT
       
LFKS 211300Z AUTO 35012KT 9999 BKN046 OVC052 09/02 Q1004
TAF LFKS 201400Z 2015/2115 04005KT 9999 BKN030 
     TEMPO 2112/2115 04010G20KT SCT030TCU BKN040
       
TAF LFAQ 211100Z 2112/2121 03012KT 4000 BR NSC 
     BECMG 2112/2114 6000 NSW
       
LFAT 211300Z AUTO 05008KT 020V080 7000 NSC 06/M02 Q1025 NOSIG
TAF LFAT 211100Z 2112/2121 07010KT 6000 NSC
       
LFBA 211300Z AUTO 34010KT 320V020 9000 FEW040 08/M01 Q1015 NOSIG
LFBC 211300Z AUTO 02013KT 340V040 CAVOK 09/M02 Q1017 NOSIG
TAF LFBC 201400Z 2015/2115 32012KT 9999 BKN015 BKN065 
     PROB40 
     TEMPO 2020/2023 5000 -RA BKN010 
     BECMG 2104/2105 02010KT
       
LFBD 211300Z AUTO 02016KT 9999 FEW041 08/M00 Q1017 NOSIG
TAF LFBD 201100Z 2012/2118 30008KT 9999 BKN015 
     PROB30 
     TEMPO 2012/2107 4000 -RA BKN009 
     BECMG 2107/2109 SCT025 TX11/2015Z TN05/2106Z
       
LFBE 211300Z AUTO 36011KT 9999 FEW042 08/M00 Q1015 NOSIG
LFBG 211300Z AUTO 03015KT 360V070 9999 SCT028 BKN034 BKN190 07/M01 Q1018 TEMPO 03015G25KT
TAF LFBG 201400Z 2015/2115 34015G25KT 9999 BKN020 
     TEMPO 2016/2022 5000 -RA BKN010 
     BECMG 2110/2112 CAVOK
       
LFBH 211300Z AUTO 03013KT 8000 BKN030 BKN240 08/01 Q1020 NOSIG
LFBI 211300Z AUTO 02014KT 7000 BKN026 05/M00 Q1019 NOSIG
LFBL 211300Z AUTO 03019KT 9999 SCT024 03/M03 Q1015 NOSIG
LFBM 211300Z AUTO 02011KT 350V070 CAVOK 09/M01 Q1016 NOSIG
TAF LFBM 201400Z 2015/2115 30013KT 9999 BKN015 
     TEMPO 2020/2103 4000 -RADZ BKN008 
     BECMG 2023/2101 36010KT 
     TEMPO 2103/2106 BKN010 
     BECMG 2108/2110 NSC
       
LFBO 211300Z AUTO 32014KT 290V350 9999 FEW042 08/M02 Q1013 NOSIG
TAF LFBO 201100Z 2012/2118 30012KT 9999 BKN013 
     PROB40 
     TEMPO 2012/2018 4000 -RA BKN009 
     BECMG 2018/2020 BKN030 
     TEMPO 2012/2022 30015G25KT
       
LFBP 211300Z AUTO 35005KT 300V040 9999 FEW030 SCT035 08/00 Q1015 NOSIG
LFBT 211300Z AUTO 33007KT 280V010 9999 BKN034 BKN042 07/00 Q1014 NOSIG
LFBY 211300Z 02009KT 330V060 9999 FEW033 10/M02 Q1016
LFBZ 211300Z AUTO 02007KT 330V080 9999 FEW038 SCT100 BKN140 09/01 Q1016 NOSIG
LFCK 211300Z AUTO 31012KT 280V340 9999 SCT046 07/M04 Q1013 NOSIG
LFCR 211300Z AUTO 02015KT 360V070 CAVOK 02/M06 Q1011 NOSIG
LFGJ 211300Z AUTO 06017KT 9999 BKN043 BKN049 05/M04 Q1015 TEMPO 03025G35KT
LFJL 211300Z AUTO 04013KT 8000 NSC 05/M04 Q1019 NOSIG
LFKB 211300Z AUTO 05010KT 9999 -RA BKN036 BKN042 OVC049 08/03 Q1005 TEMPO SHRA FEW025TCU BKN030
TAF LFKB 201400Z 2015/2115 04008KT 9999 BKN050 OVC070 
     TEMPO 2100/2109 04015KT 
     TEMPO 2106/2115 SHRA SCT026TCU BKN030 OVC080 TX10/2112Z TN04/2104Z
       
LFKC 211300Z AUTO 04015KT 9999 FEW034 SCT060 BKN076 09/01 Q1004 TEMPO 04012G22KT SHRA FEW025TCU BKN035
TAF LFKC 201400Z 2015/2115 04010KT 9999 FEW050 
     TEMPO 2018/2109 04012G22KT TX11/2015Z TN03/2104Z
       
LFKF 211300Z AUTO 06011KT 030V090 9999 FEW042 OVC082 09/03 Q1003 TEMPO SHRA SCT025TCU BKN035
TAF LFKF 201400Z 2015/2115 05010KT 9999 FEW050 BKN100 
     TEMPO 2015/2018 SHRA FEW020CB SCT026 OVC070 
     BECMG 2018/2021 04015KT BKN033 
     PROB30 
     TEMPO 2112/2115 SHRA FEW020CB BKN033
       
LFKJ 211300Z AUTO VRB03KT 9999 FEW035 BKN043 OVC052 11/02 Q1003 TEMPO 4000 TSRA SCT026TCU BKN035
TAF LFKJ 201400Z 2015/2115 24008KT 9999 SCT040 BKN060 
     TEMPO 2015/2018 SHRA SCT026TCU BKN050 
     BECMG 2018/2021 04006KT SCT030 
     TEMPO 2112/2115 SHRA SCT026 BKN050
       
LFKS 211300Z AUTO 35012KT 9999 BKN046 OVC052 09/02 Q1004
TAF LFKS 201400Z 2015/2115 04005KT 9999 BKN030 
     TEMPO 2112/2115 04010G20KT SCT030TCU BKN040
       
LFLB 211300Z AUTO 34014KT 9999 SCT041 BKN047 BKN054 04/M04 Q1013 NOSIG
LFLC 211300Z AUTO 01012KT 320V030 9999 BKN033 BKN039 02/M04 Q1015 NOSIG
TAF AMD LFLC 201515Z 2015/2115 03008KT 9999 BKN009 OVC020 
     PROB40 
     TEMPO 2021/2024 2000 RASN BR OVC003 
     BECMG 2103/2106 NSW BKN013 
     TEMPO 2109/2115 36010G20KT
       
LFLL 211300Z 35015KT 9999 BKN048 03/M05 Q1013 NOSIG
TAF LFLL 201100Z 2012/2118 35015KT CAVOK 
     PROB40 
     TEMPO 2103/2109 BKN010 
     BECMG 2108/2111 BKN025
       
LFLN 211300Z AUTO 35012KT 9999 BKN042 04/M03 Q1015 NOSIG
LFLP 211300Z AUTO 34016KT 9999 BKN041 02/M05 Q1011 NOSIG
TAF LFLP 201400Z 2015/2115 35012KT 9999 FEW060 
     TEMPO 2105/2110 SCT020 
       
LFLS 211300Z AUTO 35007KT 310V070 9999 OVC043 02/M04 Q1012 NOSIG
TAF LFLS 201400Z 2015/2115 35012KT CAVOK 
     TEMPO 2015/2022 35015G25KT 
     PROB40 
     TEMPO 2023/2109 BKN009 
     BECMG 2109/2111 SCT025
       
LFLU 211300Z AUTO 02014KT 9999 BKN035 OVC042 03/M03 Q1012
LFLX 211300Z AUTO 03013KT 360V060 7000 BKN031 05/M01 Q1018 NOSIG
TAF LFLX 201100Z 2012/2118 36008KT 9999 BKN008 
     BECMG 2012/2015 BKN018 
     TEMPO 2019/2024 6000 -RA BKN012 
     BECMG 2100/2103 03010KT BKN012 
     BECMG 2109/2112 BKN025 
     TEMPO 2115/2118 02010G20KT
       
LFLY 211300Z AUTO 36015KT 340V080 9999 FEW034 OVC056 04/M05 Q1013 NOSIG
LFMC 211300Z VRB03KT 9999 FEW033TCU BKN040 BKN100 11/M00 Q1006
LFMD 211300Z AUTO 11008KT 060V160 9999 FEW062 12/M03 Q1005 NOSIG
TAF LFMD 201400Z 2015/2115 15006KT 9999 SCT025 BKN050 
     BECMG 2017/2019 32006KT 
     BECMG 2109/2111 11010KT
       
LFMH 211300Z AUTO 34007KT 300V020 9999 OVC029 01/M05 Q1013 NOSIG
TAF LFMH 201400Z 2015/2115 33010KT 9999 SCT020 OVC040 
     TEMPO 2015/2021 36010G20KT 
     PROB40 
     TEMPO 2018/2024 1500 -SN BR OVC003 
     BECMG 2106/2109 NSW BKN013 
     TEMPO 2109/2115 36010G20KT
       
LFMI 211300Z AUTO 34021KT CAVOK 08/M04 Q1008 NOSIG
TAF LFMI 201400Z 2015/2115 34027G40KT CAVOK 
     BECMG 2100/2103 35020G30KT 
     BECMG 2106/2109 35015KT 
     TEMPO 2103/2110 -SHRA BKN025
       
LFMK 211300Z AUTO 31013KT 9999 BKN044 BKN050 07/M02 Q1012 TEMPO 28015G25KT
TAF AMD LFMK 201518Z 2015/2115 28012KT 9999 BKN020 
     TEMPO 2015/2021 28020G35KT 3000 RA BKN007 
     TEMPO 2021/2024 28015G25KT BKN018 
     TEMPO 2108/2114 28020G30KT
       
LFML 211300Z AUTO 32014KT CAVOK 08/M01 Q1008 NOSIG
TAF LFML 201400Z 2015/2121 34020G30KT CAVOK 
     BECMG 2100/2103 35015G25KT 
     TEMPO 2103/2110 -SHRA BKN025 
     BECMG 2115/2118 33010KT TX12/2015Z TN02/2106Z
       
LFMN 211300Z 09014KT 9999 FEW060 SCT096 BKN200 11/01 Q1005 NOSIG
TAF LFMN 201400Z 2015/2121 10008KT 9999 FEW030 BKN050 
     BECMG 2017/2019 34010KT 
     BECMG 2108/2110 08015G25KT 
     TEMPO 2110/2116 09020G30KT 
     BECMG 2116/2118 34010KT
       
LFMO 211300Z AUTO 36025KT CAVOK 07/M05 Q1009 BECMG 35025G35KT
TAF LFMO 201400Z 2015/2115 34020G30KT CAVOK 
     TEMPO 2015/2108 35030G40KT
       
LFMP 211300Z AUTO 33014KT 9999 BKN058 10/M04 Q1010 TEMPO 32020G30KT
TAF LFMP 201400Z 2015/2115 32012KT 9999 BKN030 
     TEMPO 2015/2024 32025G35KT 
     PROB40 
     TEMPO 2015/2021 32030G40KT 
     TEMPO 2100/2115 32020G30KT
       
LFMT 211300Z AUTO 03014KT 360V060 CAVOK 09/M05 Q1009 NOSIG
TAF LFMT 201400Z 2015/2115 36010KT CAVOK 
     TEMPO 2108/2112 02020G30KT
       
LFMU 211300Z AUTO 23005KT 150V320 CAVOK 11/M05 Q1010 NOSIG
TAF LFMU 201400Z 2015/2115 32012KT 9999 SCT045 
     TEMPO 2015/2019 32020G30KT
       
LFMV 211300Z AUTO 35022KT CAVOK 08/M04 Q1009 TEMPO 35027G37KT
TAF LFMV 201400Z 2015/2115 34025G35KT CAVOK 
     BECMG 2100/2103 35020G30KT
       
LFMY 211300Z AUTO 33017KT CAVOK 08/M04 Q1008 BECMG 34020G30KT
TAF LFMY 201400Z 2015/2115 34020G37KT CAVOK 
     BECMG 2100/2102 34015G25KT 
     BECMG 2104/2106 34015KT
       
LFOA 211300Z AUTO 03014KT 360V060 9999 FEW037 05/M03 Q1018 NOSIG
TAF LFOA 201400Z 2015/2115 01008KT 9999 SCT018 BKN025 
     PROB40 
     TEMPO 2022/2109 BKN005 
     TEMPO 2111/2115 02015G25KT
       
LFOB 211300Z AUTO 02014KT 4900 BR SCT023 04/M01 Q1023 BECMG 8000 NSW
LFOC 211300Z AUTO 33012KT 290V360 6000 FEW022 BKN027 04/M02 Q1021 TEMPO 02015G25KT
TAF LFOC 201400Z 2015/2115 32008KT 8000 BKN006 OVC015 
     TEMPO 2015/2021 4000 -RADZ BKN004 OVC010 
     BECMG 2021/2023 NSW SCT008 BKN025 
     TEMPO 2101/2108 3000 BR BKN003
       
LFOE 211300Z AUTO 02010KT 340V040 5000 HZ BKN026 04/M02 Q1023
TAF LFOE 201400Z 2015/2115 36010KT 9999 BKN006 OVC008 
     TEMPO 2015/2024 2000 DZRA BKN004 
     PROB40 
     TEMPO 2015/2021 36015G25KT 
     BECMG 2101/2103 SCT015
       
LFOH 211300Z AUTO 03016KT 7000 NSC 06/M03 Q1024 NOSIG
LFOJ 211300Z AUTO 03015KT 7000 BKN024 04/M00 Q1020 TEMPO 02015G25KT
TAF LFOJ 201400Z 2015/2115 02008KT 9999 OVC008 
     BECMG 2015/2017 OVC020 
     TEMPO 2018/2021 4000 -RA BKN015 
     BECMG 2021/2023 OVC011 
     BECMG 2111/2113 SCT020
       
LFOK 211300Z AUTO 03014KT 7000 FEW026 04/M02 Q1020 NOSIG
LFOP 211300Z AUTO 06013KT 5000 HZ FEW029 04/M01 Q1023 NOSIG
LFOT 211300Z AUTO 03010KT 360V070 8000 BKN026 05/M01 Q1020 NOSIG
LFOV 211300Z AUTO 04012KT CAVOK 07/M01 Q1022
LFPB 211300Z AUTO 04010KT 5000 BR BKN025 BKN180 04/M01 Q1023 NOSIG
LFPG 211300Z 02013KT 4500 BR BKN021 04/M02 Q1022 NOSIG
TAF AMD LFPG 211245Z 2113/2218 03012KT 4000 HZ BKN020 
     TEMPO 2113/2117 6000 
     BECMG 2202/2204 4000 BR BKN005 
     BECMG 2207/2209 SCT010 
     BECMG 2212/2214 SCT025 TX06/2115Z TNM03/2206Z
       
LFPM 211300Z AUTO 02008KT 350V070 6000 FEW024 04/M02 Q1021
LFPN 211300Z AUTO 03011KT 360V060 6000 FEW026 03/M02 Q1021 NOSIG
LFPO 211300Z 05013KT 8000 SCT026 04/M01 Q1022 NOSIG
TAF LFPO 201100Z 2012/2118 36005KT 6000 BKN012 
     TEMPO 2012/2016 BKN020 
     TEMPO 2017/2020 2000 RADZ BKN003 
     BECMG 2021/2024 03010KT CAVOK 
     PROB40 
     TEMPO 2103/2108 BKN008
       
LFPV 211300Z AUTO 02011KT 340V060 6000 FEW023 03/M03 Q1021 NOSIG
TAF AMD LFPV 201439Z 2015/2115 01005KT 9999 BKN018 BKN040 
     TEMPO 2017/2021 3000 -RADZ BKN005 BKN012 
     PROB30 
     TEMPO 2017/2020 OVC003 
     BECMG 2021/2023 CAVOK 
     PROB30 
     TEMPO 2102/2108 BKN005
       
LFQA 211300Z AUTO 03008KT 350V070 9000 NSC 05/M01 Q1021
LFQB 211300Z AUTO 03010KT 340V060 7000 NSC 05/M02 Q1020
LFQQ 211300Z AUTO 04010KT 350V070 6000 NSC 04/M03 Q1025 NOSIG
TAF LFQQ 201100Z 2012/2118 VRB03KT 9999 SCT015 BKN050 
     TEMPO 2013/2018 4000 RA BKN013 
     BECMG 2108/2111 02013KT
       
LFRB 211300Z AUTO 07013KT 9999 FEW026 SCT039 08/02 Q1023 NOSIG
TAF LFRB 201100Z 2012/2118 36015KT 9999 FEW020 
     TEMPO 2012/2018 01018G28KT 
     PROB30 
     TEMPO 2100/2107 4000 -SHRA BKN014 
     BECMG 2103/2106 04010KT
       
LFRD 211300Z AUTO 03011KT 360V060 8000 NSC 07/M01 Q1024 NOSIG
LFRG 211300Z AUTO 05010KT 020V100 CAVOK 05/M03 Q1024 NOSIG
LFRH 211300Z AUTO 05014KT CAVOK 09/M00 Q1022 NOSIG
LFRI 211300Z AUTO 03014KT 360V060 9999 SCT030 07/00 Q1020 NOSIG
LFRJ 211300Z AUTO 07012KT 040V100 6000 BKN025 BKN034 09/02 Q1023 NOSIG
LFRK 211300Z AUTO 03010KT 360V060 7000 FEW029 06/M00 Q1024 TEMPO 05015G25KT
LFRL 211300Z AUTO 06008KT 020V090 9999 BKN036 08/02 Q1023 NOSIG
LFRM 211300Z AUTO 03012KT 360V060 9999 FEW019 06/M02 Q1022 NOSIG
LFRN 211300Z AUTO 05010KT 010V070 9000 NSC 08/M02 Q1022 NOSIG
LFRO 211300Z AUTO 06009KT 350V100 9000 NSC 08/M00 Q1024 NOSIG
LFRQ 211300Z AUTO 06010KT 030V100 9999 SCT037 08/01 Q1023 NOSIG
LFRS 211300Z AUTO 05008KT 360V080 CAVOK 08/M01 Q1021 NOSIG
TAF LFRS 201100Z 2012/2118 33011KT 9999 BKN017 BKN025 
     PROB30 
     TEMPO 2012/2018 34012G22KT 4000 -DZRA BKN008 OVC015 
     PROB40 
     TEMPO 2100/2104 4000 -DZRA BKN008 OVC015 
     BECMG 2103/2107 04010G20KT 
     TEMPO 2107/2109 BKN008 
     BECMG 2109/2112 SCT025
       
LFRT 211300Z AUTO 06012KT 040V100 8000 NSC 07/01 Q1024
LFRV 211300Z AUTO 05012KT 020V080 9999 FEW042 08/M01 Q1022
LFRZ 211300Z AUTO 03011KT 360V060 7000 NSC 08/M00 Q1022 NOSIG
LFSB 211300Z 02012KT 350V050 9999 FEW020 BKN033 03/M04 Q1016 TEMPO 02015G25KT
LFSD 211300Z AUTO 03015KT 9999 BKN037 BKN043 04/M05 Q1016
LFSG 211300Z AUTO 03016KT 9999 FEW028 03/M04 Q1018
LFSI 211300Z AUTO 04010KT 010V080 9999 FEW037 06/M03 Q1019
LFSL 211300Z AUTO 02012KT 360V060 CAVOK 06/M04 Q1013 NOSIG
TAF AMD LFSL 211303Z 2113/2121 36012KT CAVOK
       
LFSN 211300Z AUTO 05012KT 8000 FEW032 05/M02 Q1019
LFSO 211300Z AUTO 04011KT 010V070 8000 FEW033 04/M04 Q1018 NOSIG
TAF LFSO 201400Z 2015/2115 03010KT 9999 SCT030
       
LFST 211300Z AUTO 03014KT 6000 FEW032 04/M02 Q1019 TEMPO 02015G25KT
LFSX 211300Z AUTO 36011KT 330V030 CAVOK 07/M06 Q1016 NOSIG
TAF LFSX 201400Z 2015/2115 35008KT 9999 OVC040 
     TEMPO 2103/2108 3000 BR
       
LFTH 211300Z AUTO 35004KT 300V060 9999 SCT049 BKN058 BKN068 10/03 Q1006 NOSIG
TAF LFTH 201400Z 2015/2115 09006KT CAVOK 
     TEMPO 2015/2018 SCT030 BKN035 
     PROB30 
     TEMPO 2016/2022 -SHRA BKN030TCU 
     BECMG 2020/2021 33010KT SCT025 BKN030 
     TEMPO 2100/2105 5000 SHRA 
     PROB30 
     TEMPO 2106/2109 -SHRA BKN030TCU 
     BECMG 2109/2110 01010KT
       
LFTW 211300Z AUTO 01020KT CAVOK 08/M06 Q1009 NOSIG
TAF LFTW 201400Z 2015/2115 36012KT CAVOK 
     TEMPO 2015/2022 36020G30KT 
     TEMPO 2022/2106 36015G25KT 
     TEMPO 2106/2113 36020G35KT
       
LFVP 211300Z 13016KT 9999 OVC008 M02/M03 Q1028 NOSIG
LFYR 211300Z AUTO 02008KT 330V080 9999 SCT032 BKN150 05/M03 Q1019 NOSIG
LFRG 211300Z AUTO 05010KT 020V100 CAVOK 05/M03 Q1024 NOSIG
LFRN 211300Z AUTO 05010KT 010V070 9000 NSC 08/M02 Q1022 NOSIG
LFKF 211300Z AUTO 06011KT 030V090 9999 FEW042 OVC082 09/03 Q1003 TEMPO SHRA SCT025TCU BKN035
TAF LFKF 201400Z 2015/2115 05010KT 9999 FEW050 BKN100 
     TEMPO 2015/2018 SHRA FEW020CB SCT026 OVC070 
     BECMG 2018/2021 04015KT BKN033 
     PROB30 
     TEMPO 2112/2115 SHRA FEW020CB BKN033
       
LFGJ 211300Z AUTO 06017KT 9999 BKN043 BKN049 05/M04 Q1015 TEMPO 03025G35KT
LFOB 211300Z AUTO 02014KT 4900 BR SCT023 04/M01 Q1023 BECMG 8000 NSW
LFPN 211300Z AUTO 03011KT 360V060 6000 FEW026 03/M02 Q1021 NOSIG
LFOT 211300Z AUTO 03010KT 360V070 8000 BKN026 05/M01 Q1020 NOSIG
LFOP 211300Z AUTO 06013KT 5000 HZ FEW029 04/M01 Q1023 NOSIG
LFOK 211300Z AUTO 03014KT 7000 FEW026 04/M02 Q1020 NOSIG
LFPV 211300Z AUTO 02011KT 340V060 6000 FEW023 03/M03 Q1021 NOSIG
TAF AMD LFPV 201439Z 2015/2115 01005KT 9999 BKN018 BKN040 
     TEMPO 2017/2021 3000 -RADZ BKN005 BKN012 
     PROB30 
     TEMPO 2017/2020 OVC003 
     BECMG 2021/2023 CAVOK 
     PROB30 
     TEMPO 2102/2108 BKN005
       
LFMU 211300Z AUTO 23005KT 150V320 CAVOK 11/M05 Q1010 NOSIG
TAF LFMU 201400Z 2015/2115 32012KT 9999 SCT045 
     TEMPO 2015/2019 32020G30KT
       
LFPM 211300Z AUTO 02008KT 350V070 6000 FEW024 04/M02 Q1021